Terminal Aerodrome Forecast
Issued by NWS

Home | Current Version | Previous Version | Text Only | Print | Product List | Glossary On
Versions: 1 2 3 4 5 6 7 8 9 10 11 12 13
000
FTUS45 KABQ 301100 AAA
TAFLVS
TAF AMD
KLVS 301101Z 3011/3106 24008KT 2SM -SN BR SCT015 OVC025
      TEMPO 3011/3014 1SM -SN BR OVC015
     FM301400 17010KT 1SM -SN BR SCT003 OVC008=

USA.gov is the U.S. government's official web portal to all federal, state and local government web resources and services.